sensor_id;sensor_type;location;lat;lon;timestamp;P1;durP1;ratioP1;P2;durP2;ratioP2
73733;SDS011;62039;50.000;9.064;2022-12-22T00:02:11;2.43;;;2.00;;
73733;SDS011;62039;50.000;9.064;2022-12-22T00:04:42;2.97;;;1.83;;
73733;SDS011;62039;50.000;9.064;2022-12-22T00:07:10;1.67;;;1.40;;
73733;SDS011;62039;50.000;9.064;2022-12-22T00:09:37;1.40;;;1.30;;
73733;SDS011;62039;50.000;9.064;2022-12-22T00:12:04;1.83;;;1.40;;
73733;SDS011;62039;50.000;9.064;2022-12-22T00:14:31;1.67;;;1.20;;
73733;SDS011;62039;50.000;9.064;2022-12-22T00:17:00;1.37;;;1.27;;
73733;SDS011;62039;50.000;9.064;2022-12-22T00:19:28;1.77;;;1.20;;
73733;SDS011;62039;50.000;9.064;2022-12-22T00:21:55;2.37;;;1.17;;
73733;SDS011;62039;50.000;9.064;2022-12-22T00:24:26;1.77;;;1.17;;
73733;SDS011;62039;50.000;9.064;2022-12-22T00:26:52;1.30;;;1.00;;
73733;SDS011;62039;50.000;9.064;2022-12-22T00:29:19;1.27;;;1.17;;
73733;SDS011;62039;50.000;9.064;2022-12-22T00:31:46;2.03;;;1.30;;
73733;SDS011;62039;50.000;9.064;2022-12-22T00:34:14;1.30;;;1.20;;
73733;SDS011;62039;50.000;9.064;2022-12-22T00:36:43;1.27;;;1.10;;
73733;SDS011;62039;50.000;9.064;2022-12-22T00:39:10;1.17;;;1.07;;
73733;SDS011;62039;50.000;9.064;2022-12-22T00:41:37;1.30;;;1.10;;
73733;SDS011;62039;50.000;9.064;2022-12-22T00:44:04;1.30;;;1.20;;
73733;SDS011;62039;50.000;9.064;2022-12-22T00:46:30;0.93;;;0.87;;
73733;SDS011;62039;50.000;9.064;2022-12-22T00:49:00;1.70;;;1.30;;
73733;SDS011;62039;50.000;9.064;2022-12-22T00:51:28;1.00;;;1.00;;
73733;SDS011;62039;50.000;9.064;2022-12-22T00:53:56;1.30;;;1.20;;
73733;SDS011;62039;50.000;9.064;2022-12-22T00:56:22;2.17;;;1.10;;
73733;SDS011;62039;50.000;9.064;2022-12-22T00:58:49;1.20;;;1.10;;
73733;SDS011;62039;50.000;9.064;2022-12-22T01:01:18;1.57;;;1.40;;
73733;SDS011;62039;50.000;9.064;2022-12-22T01:03:44;1.47;;;1.30;;
73733;SDS011;62039;50.000;9.064;2022-12-22T01:06:11;1.40;;;1.20;;
73733;SDS011;62039;50.000;9.064;2022-12-22T01:08:39;1.40;;;1.30;;
73733;SDS011;62039;50.000;9.064;2022-12-22T01:11:06;1.50;;;1.30;;
73733;SDS011;62039;50.000;9.064;2022-12-22T01:13:33;2.20;;;1.30;;
73733;SDS011;62039;50.000;9.064;2022-12-22T01:15:59;1.10;;;1.00;;
73733;SDS011;62039;50.000;9.064;2022-12-22T01:18:26;1.20;;;1.03;;
73733;SDS011;62039;50.000;9.064;2022-12-22T01:20:53;1.13;;;1.03;;
73733;SDS011;62039;50.000;9.064;2022-12-22T01:23:19;1.17;;;1.00;;
73733;SDS011;62039;50.000;9.064;2022-12-22T01:25:47;1.53;;;1.00;;
73733;SDS011;62039;50.000;9.064;2022-12-22T01:28:14;1.63;;;1.10;;
73733;SDS011;62039;50.000;9.064;2022-12-22T01:30:41;1.47;;;1.30;;
73733;SDS011;62039;50.000;9.064;2022-12-22T01:33:10;1.17;;;1.03;;
73733;SDS011;62039;50.000;9.064;2022-12-22T01:35:37;1.77;;;1.00;;
73733;SDS011;62039;50.000;9.064;2022-12-22T01:38:03;1.50;;;1.03;;
73733;SDS011;62039;50.000;9.064;2022-12-22T01:40:30;1.20;;;1.10;;
73733;SDS011;62039;50.000;9.064;2022-12-22T01:42:58;1.63;;;1.13;;
73733;SDS011;62039;50.000;9.064;2022-12-22T01:45:25;1.93;;;1.10;;
73733;SDS011;62039;50.000;9.064;2022-12-22T01:47:53;1.87;;;1.00;;
73733;SDS011;62039;50.000;9.064;2022-12-22T01:50:22;1.50;;;1.00;;
73733;SDS011;62039;50.000;9.064;2022-12-22T01:52:53;1.10;;;1.00;;
73733;SDS011;62039;50.000;9.064;2022-12-22T01:55:21;1.10;;;1.00;;
73733;SDS011;62039;50.000;9.064;2022-12-22T01:57:49;1.27;;;1.00;;
73733;SDS011;62039;50.000;9.064;2022-12-22T02:00:17;1.33;;;0.83;;
73733;SDS011;62039;50.000;9.064;2022-12-22T02:02:44;0.93;;;0.90;;
73733;SDS011;62039;50.000;9.064;2022-12-22T02:05:11;1.70;;;0.87;;
73733;SDS011;62039;50.000;9.064;2022-12-22T02:07:47;1.07;;;0.97;;
73733;SDS011;62039;50.000;9.064;2022-12-22T02:10:24;0.70;;;0.70;;
73733;SDS011;62039;50.000;9.064;2022-12-22T02:13:01;1.10;;;0.90;;
73733;SDS011;62039;50.000;9.064;2022-12-22T02:15:41;1.60;;;1.03;;
73733;SDS011;62039;50.000;9.064;2022-12-22T02:18:13;1.93;;;1.10;;
73733;SDS011;62039;50.000;9.064;2022-12-22T02:20:46;1.30;;;0.90;;
73733;SDS011;62039;50.000;9.064;2022-12-22T02:23:18;0.97;;;0.93;;
73733;SDS011;62039;50.000;9.064;2022-12-22T02:25:58;1.20;;;1.10;;
73733;SDS011;62039;50.000;9.064;2022-12-22T02:28:31;1.20;;;1.07;;
73733;SDS011;62039;50.000;9.064;2022-12-22T02:30:59;1.10;;;1.00;;
73733;SDS011;62039;50.000;9.064;2022-12-22T02:33:26;1.20;;;1.10;;
73733;SDS011;62039;50.000;9.064;2022-12-22T02:36:01;1.30;;;1.20;;
73733;SDS011;62039;50.000;9.064;2022-12-22T02:38:38;1.20;;;1.10;;
73733;SDS011;62039;50.000;9.064;2022-12-22T02:41:12;2.43;;;1.27;;
73733;SDS011;62039;50.000;9.064;2022-12-22T02:43:51;1.03;;;0.97;;
73733;SDS011;62039;50.000;9.064;2022-12-22T02:46:30;0.83;;;0.83;;
73733;SDS011;62039;50.000;9.064;2022-12-22T02:49:00;1.23;;;1.13;;
73733;SDS011;62039;50.000;9.064;2022-12-22T02:51:32;2.17;;;1.03;;
73733;SDS011;62039;50.000;9.064;2022-12-22T02:54:05;1.30;;;1.10;;
73733;SDS011;62039;50.000;9.064;2022-12-22T02:56:32;1.57;;;1.00;;
73733;SDS011;62039;50.000;9.064;2022-12-22T02:59:00;0.80;;;0.80;;
73733;SDS011;62039;50.000;9.064;2022-12-22T03:01:27;1.50;;;0.90;;
73733;SDS011;62039;50.000;9.064;2022-12-22T03:03:54;1.10;;;1.00;;
73733;SDS011;62039;50.000;9.064;2022-12-22T03:06:20;0.93;;;0.83;;
73733;SDS011;62039;50.000;9.064;2022-12-22T03:08:47;0.73;;;0.73;;
73733;SDS011;62039;50.000;9.064;2022-12-22T03:11:13;2.03;;;0.90;;
73733;SDS011;62039;50.000;9.064;2022-12-22T03:13:40;1.20;;;1.00;;
73733;SDS011;62039;50.000;9.064;2022-12-22T03:16:08;1.00;;;0.87;;
73733;SDS011;62039;50.000;9.064;2022-12-22T03:18:35;1.13;;;1.00;;
73733;SDS011;62039;50.000;9.064;2022-12-22T03:21:01;1.30;;;0.80;;
73733;SDS011;62039;50.000;9.064;2022-12-22T03:23:28;1.07;;;0.80;;
73733;SDS011;62039;50.000;9.064;2022-12-22T03:25:54;0.70;;;0.70;;
73733;SDS011;62039;50.000;9.064;2022-12-22T03:28:21;0.93;;;0.87;;
73733;SDS011;62039;50.000;9.064;2022-12-22T03:30:53;1.00;;;0.90;;
73733;SDS011;62039;50.000;9.064;2022-12-22T03:33:22;0.83;;;0.83;;
73733;SDS011;62039;50.000;9.064;2022-12-22T03:35:49;1.10;;;0.80;;
73733;SDS011;62039;50.000;9.064;2022-12-22T03:38:16;0.83;;;0.80;;
73733;SDS011;62039;50.000;9.064;2022-12-22T03:40:42;0.90;;;0.70;;
73733;SDS011;62039;50.000;9.064;2022-12-22T03:43:10;1.13;;;0.80;;
73733;SDS011;62039;50.000;9.064;2022-12-22T03:45:37;0.80;;;0.80;;
73733;SDS011;62039;50.000;9.064;2022-12-22T03:48:03;0.70;;;0.70;;
73733;SDS011;62039;50.000;9.064;2022-12-22T03:50:31;0.97;;;0.70;;
73733;SDS011;62039;50.000;9.064;2022-12-22T03:52:58;1.10;;;0.90;;
73733;SDS011;62039;50.000;9.064;2022-12-22T03:55:24;1.00;;;0.73;;
73733;SDS011;62039;50.000;9.064;2022-12-22T03:57:51;1.20;;;0.60;;
73733;SDS011;62039;50.000;9.064;2022-12-22T04:00:17;1.17;;;0.63;;
73733;SDS011;62039;50.000;9.064;2022-12-22T04:02:44;0.70;;;0.70;;
73733;SDS011;62039;50.000;9.064;2022-12-22T04:05:11;1.20;;;0.80;;
73733;SDS011;62039;50.000;9.064;2022-12-22T04:07:39;0.60;;;0.60;;
73733;SDS011;62039;50.000;9.064;2022-12-22T04:10:06;1.60;;;0.80;;
73733;SDS011;62039;50.000;9.064;2022-12-22T04:12:33;0.70;;;0.67;;
73733;SDS011;62039;50.000;9.064;2022-12-22T04:15:00;0.83;;;0.60;;
73733;SDS011;62039;50.000;9.064;2022-12-22T04:17:26;0.90;;;0.67;;
73733;SDS011;62039;50.000;9.064;2022-12-22T04:19:53;1.40;;;0.87;;
73733;SDS011;62039;50.000;9.064;2022-12-22T04:22:19;0.63;;;0.63;;
73733;SDS011;62039;50.000;9.064;2022-12-22T04:24:47;0.80;;;0.67;;
73733;SDS011;62039;50.000;9.064;2022-12-22T04:27:14;1.70;;;0.90;;
73733;SDS011;62039;50.000;9.064;2022-12-22T04:29:40;1.20;;;1.00;;
73733;SDS011;62039;50.000;9.064;2022-12-22T04:32:07;1.10;;;0.73;;
73733;SDS011;62039;50.000;9.064;2022-12-22T04:34:33;1.70;;;1.00;;
73733;SDS011;62039;50.000;9.064;2022-12-22T04:37:00;1.17;;;1.00;;
73733;SDS011;62039;50.000;9.064;2022-12-22T04:39:41;0.97;;;0.77;;
73733;SDS011;62039;50.000;9.064;2022-12-22T04:42:09;1.83;;;0.90;;
73733;SDS011;62039;50.000;9.064;2022-12-22T04:44:36;1.20;;;1.00;;
73733;SDS011;62039;50.000;9.064;2022-12-22T04:47:03;2.23;;;0.87;;
73733;SDS011;62039;50.000;9.064;2022-12-22T04:49:29;1.60;;;0.80;;
73733;SDS011;62039;50.000;9.064;2022-12-22T04:51:56;1.40;;;0.80;;
73733;SDS011;62039;50.000;9.064;2022-12-22T04:54:22;2.10;;;0.80;;
73733;SDS011;62039;50.000;9.064;2022-12-22T04:56:49;1.37;;;0.70;;
73733;SDS011;62039;50.000;9.064;2022-12-22T04:59:17;1.30;;;1.00;;
73733;SDS011;62039;50.000;9.064;2022-12-22T05:01:43;1.40;;;0.87;;
73733;SDS011;62039;50.000;9.064;2022-12-22T05:04:10;2.63;;;1.00;;
73733;SDS011;62039;50.000;9.064;2022-12-22T05:06:37;1.63;;;1.00;;
73733;SDS011;62039;50.000;9.064;2022-12-22T05:09:03;1.50;;;0.83;;
73733;SDS011;62039;50.000;9.064;2022-12-22T05:11:30;1.07;;;0.80;;
73733;SDS011;62039;50.000;9.064;2022-12-22T05:13:56;1.77;;;0.83;;
73733;SDS011;62039;50.000;9.064;2022-12-22T05:16:33;1.87;;;1.03;;
73733;SDS011;62039;50.000;9.064;2022-12-22T05:19:00;3.83;;;1.17;;
73733;SDS011;62039;50.000;9.064;2022-12-22T05:21:26;1.47;;;1.00;;
73733;SDS011;62039;50.000;9.064;2022-12-22T05:23:53;1.87;;;0.90;;
73733;SDS011;62039;50.000;9.064;2022-12-22T05:26:19;1.10;;;0.90;;
73733;SDS011;62039;50.000;9.064;2022-12-22T05:28:46;1.00;;;0.90;;
73733;SDS011;62039;50.000;9.064;2022-12-22T05:31:14;1.50;;;0.90;;
73733;SDS011;62039;50.000;9.064;2022-12-22T05:33:43;0.93;;;0.87;;
73733;SDS011;62039;50.000;9.064;2022-12-22T05:36:09;1.27;;;0.90;;
73733;SDS011;62039;50.000;9.064;2022-12-22T05:38:36;1.50;;;0.83;;
73733;SDS011;62039;50.000;9.064;2022-12-22T05:41:03;2.23;;;0.90;;
73733;SDS011;62039;50.000;9.064;2022-12-22T05:43:30;1.73;;;1.00;;
73733;SDS011;62039;50.000;9.064;2022-12-22T05:45:59;1.00;;;0.90;;
73733;SDS011;62039;50.000;9.064;2022-12-22T05:48:27;1.00;;;0.90;;
73733;SDS011;62039;50.000;9.064;2022-12-22T05:51:04;2.20;;;1.07;;
73733;SDS011;62039;50.000;9.064;2022-12-22T05:53:30;1.90;;;0.83;;
73733;SDS011;62039;50.000;9.064;2022-12-22T05:55:57;1.03;;;0.80;;
73733;SDS011;62039;50.000;9.064;2022-12-22T05:58:24;1.90;;;0.80;;
73733;SDS011;62039;50.000;9.064;2022-12-22T06:00:50;1.17;;;0.77;;
73733;SDS011;62039;50.000;9.064;2022-12-22T06:03:17;2.00;;;0.63;;
73733;SDS011;62039;50.000;9.064;2022-12-22T06:05:43;2.13;;;0.93;;
73733;SDS011;62039;50.000;9.064;2022-12-22T06:08:11;1.63;;;0.70;;
73733;SDS011;62039;50.000;9.064;2022-12-22T06:10:38;1.90;;;0.63;;
73733;SDS011;62039;50.000;9.064;2022-12-22T06:13:04;1.07;;;0.60;;
73733;SDS011;62039;50.000;9.064;2022-12-22T06:15:31;0.93;;;0.70;;
73733;SDS011;62039;50.000;9.064;2022-12-22T06:17:57;0.83;;;0.47;;
73733;SDS011;62039;50.000;9.064;2022-12-22T06:20:24;0.93;;;0.50;;
73733;SDS011;62039;50.000;9.064;2022-12-22T06:22:50;0.57;;;0.50;;
73733;SDS011;62039;50.000;9.064;2022-12-22T06:25:18;1.00;;;0.90;;
73733;SDS011;62039;50.000;9.064;2022-12-22T06:27:45;1.53;;;1.10;;
73733;SDS011;62039;50.000;9.064;2022-12-22T06:30:12;2.10;;;1.37;;
73733;SDS011;62039;50.000;9.064;2022-12-22T06:32:39;1.63;;;0.80;;
73733;SDS011;62039;50.000;9.064;2022-12-22T06:35:06;1.00;;;0.83;;
73733;SDS011;62039;50.000;9.064;2022-12-22T06:37:34;0.73;;;0.60;;
73733;SDS011;62039;50.000;9.064;2022-12-22T06:40:01;0.60;;;0.60;;
73733;SDS011;62039;50.000;9.064;2022-12-22T06:42:29;0.60;;;0.60;;
73733;SDS011;62039;50.000;9.064;2022-12-22T06:44:55;1.37;;;0.80;;
73733;SDS011;62039;50.000;9.064;2022-12-22T06:47:22;1.63;;;0.80;;
73733;SDS011;62039;50.000;9.064;2022-12-22T06:49:48;1.10;;;0.90;;
73733;SDS011;62039;50.000;9.064;2022-12-22T06:52:15;2.40;;;0.80;;
73733;SDS011;62039;50.000;9.064;2022-12-22T06:54:41;1.13;;;0.80;;
73733;SDS011;62039;50.000;9.064;2022-12-22T06:57:08;0.90;;;0.77;;
73733;SDS011;62039;50.000;9.064;2022-12-22T06:59:36;0.70;;;0.50;;
73733;SDS011;62039;50.000;9.064;2022-12-22T07:02:02;1.17;;;0.70;;
73733;SDS011;62039;50.000;9.064;2022-12-22T07:04:29;1.17;;;0.80;;
73733;SDS011;62039;50.000;9.064;2022-12-22T07:06:56;1.07;;;0.67;;
73733;SDS011;62039;50.000;9.064;2022-12-22T07:09:22;1.53;;;0.70;;
73733;SDS011;62039;50.000;9.064;2022-12-22T07:11:49;1.70;;;1.20;;
73733;SDS011;62039;50.000;9.064;2022-12-22T07:14:15;0.87;;;0.73;;
73733;SDS011;62039;50.000;9.064;2022-12-22T07:16:43;1.90;;;0.80;;
73733;SDS011;62039;50.000;9.064;2022-12-22T07:19:10;1.93;;;0.80;;
73733;SDS011;62039;50.000;9.064;2022-12-22T07:21:36;1.90;;;0.80;;
73733;SDS011;62039;50.000;9.064;2022-12-22T07:24:03;2.17;;;0.80;;
73733;SDS011;62039;50.000;9.064;2022-12-22T07:26:30;0.87;;;0.70;;
73733;SDS011;62039;50.000;9.064;2022-12-22T07:28:57;1.37;;;0.70;;
73733;SDS011;62039;50.000;9.064;2022-12-22T07:31:23;1.33;;;0.90;;
73733;SDS011;62039;50.000;9.064;2022-12-22T07:33:51;1.70;;;1.17;;
73733;SDS011;62039;50.000;9.064;2022-12-22T07:36:18;3.87;;;1.60;;
73733;SDS011;62039;50.000;9.064;2022-12-22T07:38:46;1.20;;;0.80;;
73733;SDS011;62039;50.000;9.064;2022-12-22T07:41:14;2.00;;;1.30;;
73733;SDS011;62039;50.000;9.064;2022-12-22T07:43:42;1.90;;;1.70;;
73733;SDS011;62039;50.000;9.064;2022-12-22T07:46:08;2.37;;;1.20;;
73733;SDS011;62039;50.000;9.064;2022-12-22T07:48:35;1.70;;;1.13;;
73733;SDS011;62039;50.000;9.064;2022-12-22T07:51:04;2.80;;;1.70;;
73733;SDS011;62039;50.000;9.064;2022-12-22T07:53:31;2.70;;;2.10;;
73733;SDS011;62039;50.000;9.064;2022-12-22T07:56:00;2.33;;;1.90;;
73733;SDS011;62039;50.000;9.064;2022-12-22T07:58:27;3.40;;;3.00;;
73733;SDS011;62039;50.000;9.064;2022-12-22T08:00:56;2.63;;;2.10;;
73733;SDS011;62039;50.000;9.064;2022-12-22T08:03:23;3.20;;;1.93;;
73733;SDS011;62039;50.000;9.064;2022-12-22T08:05:50;3.53;;;2.67;;
73733;SDS011;62039;50.000;9.064;2022-12-22T08:08:17;3.37;;;2.40;;
73733;SDS011;62039;50.000;9.064;2022-12-22T08:10:44;3.57;;;1.90;;
73733;SDS011;62039;50.000;9.064;2022-12-22T08:13:10;3.07;;;2.20;;
73733;SDS011;62039;50.000;9.064;2022-12-22T08:15:37;3.70;;;2.60;;
73733;SDS011;62039;50.000;9.064;2022-12-22T08:18:04;2.70;;;1.50;;
73733;SDS011;62039;50.000;9.064;2022-12-22T08:20:30;1.80;;;1.70;;
73733;SDS011;62039;50.000;9.064;2022-12-22T08:22:57;3.43;;;1.60;;
73733;SDS011;62039;50.000;9.064;2022-12-22T08:25:25;3.40;;;1.83;;
73733;SDS011;62039;50.000;9.064;2022-12-22T08:27:52;2.60;;;1.73;;
73733;SDS011;62039;50.000;9.064;2022-12-22T08:30:21;2.60;;;1.70;;
73733;SDS011;62039;50.000;9.064;2022-12-22T08:32:48;5.00;;;1.70;;
73733;SDS011;62039;50.000;9.064;2022-12-22T08:35:16;2.20;;;1.77;;
73733;SDS011;62039;50.000;9.064;2022-12-22T08:37:43;4.63;;;2.73;;
73733;SDS011;62039;50.000;9.064;2022-12-22T08:40:11;2.77;;;1.67;;
73733;SDS011;62039;50.000;9.064;2022-12-22T08:42:42;2.87;;;1.57;;
73733;SDS011;62039;50.000;9.064;2022-12-22T08:45:09;3.00;;;1.50;;
73733;SDS011;62039;50.000;9.064;2022-12-22T08:47:36;3.50;;;1.80;;
73733;SDS011;62039;50.000;9.064;2022-12-22T08:50:03;6.33;;;1.83;;
73733;SDS011;62039;50.000;9.064;2022-12-22T08:52:30;3.00;;;1.30;;
73733;SDS011;62039;50.000;9.064;2022-12-22T08:54:57;4.57;;;2.43;;
73733;SDS011;62039;50.000;9.064;2022-12-22T08:57:23;3.97;;;1.77;;
73733;SDS011;62039;50.000;9.064;2022-12-22T08:59:51;2.33;;;1.60;;
73733;SDS011;62039;50.000;9.064;2022-12-22T09:02:18;4.40;;;2.00;;
73733;SDS011;62039;50.000;9.064;2022-12-22T09:04:44;3.83;;;1.43;;
73733;SDS011;62039;50.000;9.064;2022-12-22T09:07:11;4.60;;;1.70;;
73733;SDS011;62039;50.000;9.064;2022-12-22T09:09:37;2.93;;;1.40;;
73733;SDS011;62039;50.000;9.064;2022-12-22T09:12:04;3.27;;;1.40;;
73733;SDS011;62039;50.000;9.064;2022-12-22T09:14:31;3.67;;;1.30;;
73733;SDS011;62039;50.000;9.064;2022-12-22T09:16:59;5.10;;;2.90;;
73733;SDS011;62039;50.000;9.064;2022-12-22T09:19:26;6.23;;;3.70;;
73733;SDS011;62039;50.000;9.064;2022-12-22T09:21:53;3.00;;;1.60;;
73733;SDS011;62039;50.000;9.064;2022-12-22T09:24:20;3.33;;;1.47;;
73733;SDS011;62039;50.000;9.064;2022-12-22T09:26:46;4.23;;;1.63;;
73733;SDS011;62039;50.000;9.064;2022-12-22T09:29:13;2.60;;;1.57;;
73733;SDS011;62039;50.000;9.064;2022-12-22T09:31:39;4.03;;;1.43;;
73733;SDS011;62039;50.000;9.064;2022-12-22T09:34:07;3.80;;;1.67;;
73733;SDS011;62039;50.000;9.064;2022-12-22T09:36:42;2.60;;;1.40;;
73733;SDS011;62039;50.000;9.064;2022-12-22T09:39:09;5.00;;;1.80;;
73733;SDS011;62039;50.000;9.064;2022-12-22T09:41:36;3.37;;;1.60;;
73733;SDS011;62039;50.000;9.064;2022-12-22T09:44:11;3.03;;;1.40;;
73733;SDS011;62039;50.000;9.064;2022-12-22T09:46:40;4.00;;;1.57;;
73733;SDS011;62039;50.000;9.064;2022-12-22T09:49:09;2.00;;;1.30;;
73733;SDS011;62039;50.000;9.064;2022-12-22T09:51:41;4.43;;;1.63;;
73733;SDS011;62039;50.000;9.064;2022-12-22T09:54:09;4.23;;;1.30;;
73733;SDS011;62039;50.000;9.064;2022-12-22T09:56:37;3.70;;;1.20;;
73733;SDS011;62039;50.000;9.064;2022-12-22T09:59:07;2.73;;;1.37;;
73733;SDS011;62039;50.000;9.064;2022-12-22T10:01:42;3.43;;;1.53;;
73733;SDS011;62039;50.000;9.064;2022-12-22T10:04:26;2.20;;;1.50;;
73733;SDS011;62039;50.000;9.064;2022-12-22T10:07:05;3.60;;;1.60;;
73733;SDS011;62039;50.000;9.064;2022-12-22T10:09:42;6.57;;;1.63;;
73733;SDS011;62039;50.000;9.064;2022-12-22T10:12:16;2.50;;;1.17;;
73733;SDS011;62039;50.000;9.064;2022-12-22T10:14:45;5.90;;;1.80;;
73733;SDS011;62039;50.000;9.064;2022-12-22T10:17:14;3.63;;;1.40;;
73733;SDS011;62039;50.000;9.064;2022-12-22T10:19:46;3.07;;;1.33;;
73733;SDS011;62039;50.000;9.064;2022-12-22T10:25:00;2.73;;;1.30;;
73733;SDS011;62039;50.000;9.064;2022-12-22T10:27:30;3.47;;;1.30;;
73733;SDS011;62039;50.000;9.064;2022-12-22T10:30:17;2.87;;;1.23;;
73733;SDS011;62039;50.000;9.064;2022-12-22T10:32:53;3.43;;;1.20;;
73733;SDS011;62039;50.000;9.064;2022-12-22T10:35:27;3.57;;;1.50;;
73733;SDS011;62039;50.000;9.064;2022-12-22T10:38:11;4.03;;;1.60;;
73733;SDS011;62039;50.000;9.064;2022-12-22T10:40:47;2.80;;;1.00;;
73733;SDS011;62039;50.000;9.064;2022-12-22T10:43:22;2.90;;;1.10;;
73733;SDS011;62039;50.000;9.064;2022-12-22T10:45:51;4.27;;;1.60;;
73733;SDS011;62039;50.000;9.064;2022-12-22T10:48:26;2.97;;;1.10;;
73733;SDS011;62039;50.000;9.064;2022-12-22T10:50:55;2.20;;;1.10;;
73733;SDS011;62039;50.000;9.064;2022-12-22T10:53:40;2.37;;;0.90;;
73733;SDS011;62039;50.000;9.064;2022-12-22T10:56:17;2.87;;;1.23;;
73733;SDS011;62039;50.000;9.064;2022-12-22T10:58:47;2.23;;;1.00;;
73733;SDS011;62039;50.000;9.064;2022-12-22T11:01:21;3.73;;;1.30;;
73733;SDS011;62039;50.000;9.064;2022-12-22T11:03:50;3.93;;;1.20;;
73733;SDS011;62039;50.000;9.064;2022-12-22T11:06:18;3.83;;;1.20;;
73733;SDS011;62039;50.000;9.064;2022-12-22T11:08:45;2.07;;;1.07;;
73733;SDS011;62039;50.000;9.064;2022-12-22T11:11:29;1.87;;;0.90;;
73733;SDS011;62039;50.000;9.064;2022-12-22T11:14:05;1.83;;;0.90;;
73733;SDS011;62039;50.000;9.064;2022-12-22T11:16:40;3.03;;;1.00;;
73733;SDS011;62039;50.000;9.064;2022-12-22T11:19:18;1.63;;;0.77;;
73733;SDS011;62039;50.000;9.064;2022-12-22T11:22:01;2.47;;;1.43;;
73733;SDS011;62039;50.000;9.064;2022-12-22T11:24:37;0.70;;;0.60;;
73733;SDS011;62039;50.000;9.064;2022-12-22T11:27:12;1.70;;;0.77;;
73733;SDS011;62039;50.000;9.064;2022-12-22T11:29:56;2.23;;;0.90;;
73733;SDS011;62039;50.000;9.064;2022-12-22T11:35:27;1.67;;;0.70;;
73733;SDS011;62039;50.000;9.064;2022-12-22T11:38:04;1.50;;;0.60;;
73733;SDS011;62039;50.000;9.064;2022-12-22T11:40:40;1.97;;;0.63;;
73733;SDS011;62039;50.000;9.064;2022-12-22T11:43:14;1.37;;;0.67;;
73733;SDS011;62039;50.000;9.064;2022-12-22T11:45:49;1.37;;;0.80;;
73733;SDS011;62039;50.000;9.064;2022-12-22T11:48:27;1.83;;;0.73;;
73733;SDS011;62039;50.000;9.064;2022-12-22T11:51:15;2.37;;;0.97;;
73733;SDS011;62039;50.000;9.064;2022-12-22T11:54:06;1.70;;;0.67;;
73733;SDS011;62039;50.000;9.064;2022-12-22T11:56:50;1.57;;;0.70;;
73733;SDS011;62039;50.000;9.064;2022-12-22T11:59:29;1.97;;;0.87;;
73733;SDS011;62039;50.000;9.064;2022-12-22T12:02:25;1.20;;;0.70;;
73733;SDS011;62039;50.000;9.064;2022-12-22T12:05:16;1.60;;;0.60;;
73733;SDS011;62039;50.000;9.064;2022-12-22T12:07:58;1.30;;;0.87;;
73733;SDS011;62039;50.000;9.064;2022-12-22T12:10:38;1.63;;;0.70;;
73733;SDS011;62039;50.000;9.064;2022-12-22T12:13:12;1.37;;;0.93;;
73733;SDS011;62039;50.000;9.064;2022-12-22T12:15:57;2.27;;;1.23;;
73733;SDS011;62039;50.000;9.064;2022-12-22T12:18:37;4.53;;;0.90;;
73733;SDS011;62039;50.000;9.064;2022-12-22T12:21:24;0.63;;;0.53;;
73733;SDS011;62039;50.000;9.064;2022-12-22T12:23:56;1.03;;;0.70;;
73733;SDS011;62039;50.000;9.064;2022-12-22T12:26:43;0.50;;;0.50;;
73733;SDS011;62039;50.000;9.064;2022-12-22T12:29:17;0.53;;;0.53;;
73733;SDS011;62039;50.000;9.064;2022-12-22T12:31:47;0.70;;;0.50;;
73733;SDS011;62039;50.000;9.064;2022-12-22T12:34:18;0.50;;;0.50;;
73733;SDS011;62039;50.000;9.064;2022-12-22T12:36:48;0.83;;;0.50;;
73733;SDS011;62039;50.000;9.064;2022-12-22T12:39:21;1.13;;;0.40;;
73733;SDS011;62039;50.000;9.064;2022-12-22T12:41:57;0.50;;;0.50;;
73733;SDS011;62039;50.000;9.064;2022-12-22T12:44:29;0.53;;;0.50;;
73733;SDS011;62039;50.000;9.064;2022-12-22T12:49:54;0.60;;;0.40;;
73733;SDS011;62039;50.000;9.064;2022-12-22T12:55:30;0.40;;;0.40;;
73733;SDS011;62039;50.000;9.064;2022-12-22T12:58:00;0.40;;;0.40;;
73733;SDS011;62039;50.000;9.064;2022-12-22T13:00:40;0.30;;;0.30;;
73733;SDS011;62039;50.000;9.064;2022-12-22T13:09:17;0.40;;;0.40;;
73733;SDS011;62039;50.000;9.064;2022-12-22T13:15:00;0.40;;;0.30;;
73733;SDS011;62039;50.000;9.064;2022-12-22T13:17:31;0.30;;;0.30;;
73733;SDS011;62039;50.000;9.064;2022-12-22T13:19:58;0.30;;;0.30;;
73733;SDS011;62039;50.000;9.064;2022-12-22T13:22:25;0.40;;;0.30;;
73733;SDS011;62039;50.000;9.064;2022-12-22T13:24:52;0.30;;;0.30;;
73733;SDS011;62039;50.000;9.064;2022-12-22T13:27:21;0.63;;;0.30;;
73733;SDS011;62039;50.000;9.064;2022-12-22T13:29:47;0.40;;;0.30;;
73733;SDS011;62039;50.000;9.064;2022-12-22T13:32:19;0.30;;;0.30;;
73733;SDS011;62039;50.000;9.064;2022-12-22T13:34:56;1.00;;;0.30;;
73733;SDS011;62039;50.000;9.064;2022-12-22T13:37:48;0.57;;;0.30;;
73733;SDS011;62039;50.000;9.064;2022-12-22T13:40:16;0.50;;;0.37;;
73733;SDS011;62039;50.000;9.064;2022-12-22T13:42:45;0.43;;;0.30;;
73733;SDS011;62039;50.000;9.064;2022-12-22T13:45:15;0.40;;;0.40;;
73733;SDS011;62039;50.000;9.064;2022-12-22T13:47:45;0.33;;;0.33;;
73733;SDS011;62039;50.000;9.064;2022-12-22T13:50:17;0.30;;;0.30;;
73733;SDS011;62039;50.000;9.064;2022-12-22T13:52:46;0.30;;;0.30;;
73733;SDS011;62039;50.000;9.064;2022-12-22T13:55:14;0.40;;;0.40;;
73733;SDS011;62039;50.000;9.064;2022-12-22T13:57:43;3.67;;;1.70;;
73733;SDS011;62039;50.000;9.064;2022-12-22T14:00:17;2.80;;;1.80;;
73733;SDS011;62039;50.000;9.064;2022-12-22T14:02:46;1.00;;;0.90;;
73733;SDS011;62039;50.000;9.064;2022-12-22T14:05:13;1.10;;;0.90;;
73733;SDS011;62039;50.000;9.064;2022-12-22T14:07:40;1.53;;;1.00;;
73733;SDS011;62039;50.000;9.064;2022-12-22T14:10:24;0.90;;;0.63;;
73733;SDS011;62039;50.000;9.064;2022-12-22T14:12:52;0.53;;;0.53;;
73733;SDS011;62039;50.000;9.064;2022-12-22T14:15:19;2.37;;;1.77;;
73733;SDS011;62039;50.000;9.064;2022-12-22T14:17:47;0.80;;;0.80;;
73733;SDS011;62039;50.000;9.064;2022-12-22T14:20:19;0.60;;;0.50;;
73733;SDS011;62039;50.000;9.064;2022-12-22T14:22:49;0.50;;;0.40;;
73733;SDS011;62039;50.000;9.064;2022-12-22T14:25:20;0.90;;;0.50;;
73733;SDS011;62039;50.000;9.064;2022-12-22T14:27:50;1.20;;;1.10;;
73733;SDS011;62039;50.000;9.064;2022-12-22T14:30:19;2.00;;;1.80;;
73733;SDS011;62039;50.000;9.064;2022-12-22T14:32:50;1.90;;;1.67;;
73733;SDS011;62039;50.000;9.064;2022-12-22T14:35:23;1.70;;;1.33;;
73733;SDS011;62039;50.000;9.064;2022-12-22T14:37:52;2.87;;;2.17;;
73733;SDS011;62039;50.000;9.064;2022-12-22T14:40:30;2.77;;;2.40;;
73733;SDS011;62039;50.000;9.064;2022-12-22T14:42:58;2.07;;;1.37;;
73733;SDS011;62039;50.000;9.064;2022-12-22T14:45:26;1.37;;;0.90;;
73733;SDS011;62039;50.000;9.064;2022-12-22T14:47:54;1.57;;;0.90;;
73733;SDS011;62039;50.000;9.064;2022-12-22T14:50:23;1.97;;;0.90;;
73733;SDS011;62039;50.000;9.064;2022-12-22T14:52:51;0.80;;;0.80;;
73733;SDS011;62039;50.000;9.064;2022-12-22T14:55:21;1.47;;;1.00;;
73733;SDS011;62039;50.000;9.064;2022-12-22T14:57:52;1.83;;;1.00;;
73733;SDS011;62039;50.000;9.064;2022-12-22T15:00:31;1.53;;;1.10;;
73733;SDS011;62039;50.000;9.064;2022-12-22T15:03:01;2.80;;;1.50;;
73733;SDS011;62039;50.000;9.064;2022-12-22T15:05:31;3.13;;;1.63;;
73733;SDS011;62039;50.000;9.064;2022-12-22T15:07:58;4.60;;;2.93;;
73733;SDS011;62039;50.000;9.064;2022-12-22T15:10:34;2.90;;;2.17;;
73733;SDS011;62039;50.000;9.064;2022-12-22T15:13:05;5.87;;;3.80;;
73733;SDS011;62039;50.000;9.064;2022-12-22T15:15:37;4.97;;;4.47;;
73733;SDS011;62039;50.000;9.064;2022-12-22T15:18:05;3.40;;;3.10;;
73733;SDS011;62039;50.000;9.064;2022-12-22T15:20:31;2.40;;;2.20;;
73733;SDS011;62039;50.000;9.064;2022-12-22T15:23:07;2.20;;;2.00;;
73733;SDS011;62039;50.000;9.064;2022-12-22T15:25:39;1.73;;;1.40;;